createdAt,value
2022-11-10T00:04:19.277Z,8.28
2022-11-10T00:09:20.673Z,8.21
2022-11-10T00:14:40.484Z,8.23
2022-11-10T00:19:41.881Z,8.24
2022-11-10T00:24:44.788Z,8.29
2022-11-10T00:29:46.158Z,8.29
2022-11-10T00:34:47.508Z,8.35
2022-11-10T00:39:49.097Z,8.40
2022-11-10T00:44:50.636Z,8.33
2022-11-10T00:49:52.036Z,8.30
2022-11-10T00:54:53.467Z,8.22
2022-11-10T00:59:54.882Z,8.22
2022-11-10T01:04:56.374Z,8.37
2022-11-10T01:09:57.741Z,8.31
2022-11-10T01:14:59.109Z,8.23
2022-11-10T01:20:00.474Z,8.25
2022-11-10T01:25:02.581Z,8.21
2022-11-10T01:30:05.094Z,8.20
2022-11-10T01:35:06.838Z,8.17
2022-11-10T01:40:09.219Z,8.19
2022-11-10T01:45:22.867Z,8.20
2022-11-10T01:50:28.411Z,8.19
2022-11-10T01:55:31.032Z,8.19
2022-11-10T02:00:32.522Z,8.28
2022-11-10T02:05:34.502Z,8.17
2022-11-10T02:10:37.267Z,8.16
2022-11-10T02:15:39.183Z,8.10
2022-11-10T02:20:44.375Z,8.13
2022-11-10T02:25:45.738Z,8.14
2022-11-10T02:30:47.105Z,8.16
2022-11-10T02:35:48.635Z,8.25
2022-11-10T02:40:50.191Z,8.14
2022-11-10T02:45:51.614Z,8.18
2022-11-10T02:50:52.953Z,8.08
2022-11-10T02:55:54.969Z,8.18
2022-11-10T03:00:56.447Z,8.10
2022-11-10T03:05:57.863Z,8.04
2022-11-10T03:10:59.342Z,8.02
2022-11-10T03:16:00.856Z,8.03
2022-11-10T03:21:02.209Z,8.01
2022-11-10T03:26:05.237Z,7.94
2022-11-10T03:31:06.598Z,7.94
2022-11-10T03:36:08.022Z,7.90
2022-11-10T03:41:19.292Z,8.12
2022-11-10T03:46:21.332Z,7.98
2022-11-10T03:51:22.850Z,7.95
2022-11-10T03:56:24.216Z,7.83
2022-11-10T04:01:25.635Z,7.78
2022-11-10T04:06:45.743Z,7.96
2022-11-10T04:12:05.716Z,7.91
2022-11-10T04:17:09.549Z,7.87
2022-11-10T04:22:30.927Z,7.77
2022-11-10T04:27:32.507Z,7.82
2022-11-10T04:32:33.890Z,7.80
2022-11-10T04:37:35.380Z,7.82
2022-11-10T04:42:39.661Z,7.77
2022-11-10T04:47:41.009Z,7.78
2022-11-10T04:52:42.500Z,7.75
2022-11-10T04:57:43.915Z,7.80
2022-11-10T05:02:45.354Z,7.86
2022-11-10T05:07:49.548Z,7.90
2022-11-10T05:12:54.077Z,8.01
2022-11-10T05:17:55.440Z,7.92
2022-11-10T05:23:15.313Z,7.88
2022-11-10T05:28:17.031Z,8.01
2022-11-10T05:33:18.664Z,7.89
2022-11-10T05:38:20.318Z,7.90
2022-11-10T05:43:22.282Z,7.83
2022-11-10T05:48:23.917Z,7.83
2022-11-10T05:53:25.894Z,7.80
2022-11-10T05:58:27.387Z,7.81
2022-11-10T06:03:28.782Z,7.92
2022-11-10T06:08:30.211Z,7.89
2022-11-10T06:13:31.613Z,8.00
2022-11-10T06:18:32.992Z,7.89
2022-11-10T06:23:34.360Z,7.87
2022-11-10T06:28:35.755Z,7.93
2022-11-10T06:33:37.213Z,7.90
2022-11-10T06:38:38.590Z,7.87
2022-11-10T06:43:40.004Z,7.81
2022-11-10T06:48:41.357Z,7.82
2022-11-10T06:53:42.720Z,7.79
2022-11-10T06:58:44.150Z,7.85
2022-11-10T07:04:13.176Z,7.91
2022-11-10T07:09:06.884Z,7.97
2022-11-10T07:14:08.372Z,7.94
2022-11-10T07:19:09.798Z,8.08
2022-11-10T07:24:11.213Z,8.04
2022-11-10T07:29:14.213Z,8.05
2022-11-10T07:34:16.981Z,8.10
2022-11-10T07:39:18.557Z,8.05
2022-11-10T07:44:20.069Z,8.15
2022-11-10T07:49:21.640Z,8.21
2022-11-10T07:54:23.054Z,8.25
2022-11-10T07:59:24.566Z,8.36
2022-11-10T08:04:26.335Z,8.42
2022-11-10T08:09:27.831Z,8.48
2022-11-10T08:14:29.274Z,8.56
2022-11-10T08:19:30.723Z,8.60
2022-11-10T08:24:32.067Z,8.71
2022-11-10T08:29:33.479Z,8.88
2022-11-10T08:34:34.868Z,8.95
2022-11-10T08:39:39.863Z,9.12
2022-11-10T08:44:41.279Z,9.20
2022-11-10T08:49:42.815Z,9.33
2022-11-10T08:54:44.166Z,9.42
2022-11-10T08:59:45.541Z,9.51
2022-11-10T09:04:46.990Z,9.67
2022-11-10T09:10:05.944Z,9.67
2022-11-10T09:15:09.964Z,9.79
2022-11-10T09:20:12.605Z,9.78
2022-11-10T09:25:14.041Z,9.99
2022-11-10T09:30:17.866Z,10.03
2022-11-10T09:35:19.863Z,10.17
2022-11-10T09:40:34.218Z,10.35
2022-11-10T09:45:42.745Z,10.49
2022-11-10T09:51:11.460Z,10.72
2022-11-10T09:56:20.327Z,10.68
2022-11-10T10:01:35.030Z,10.90
2022-11-10T10:07:09.708Z,10.96
2022-11-10T10:12:45.683Z,11.20
2022-11-10T10:18:16.349Z,11.07
2022-11-10T10:23:40.679Z,11.26
2022-11-10T10:28:49.104Z,11.40
2022-11-10T10:33:51.284Z,11.55
2022-11-10T10:39:01.619Z,11.61
2022-11-10T10:44:11.670Z,11.93
2022-11-10T10:49:33.962Z,12.49
2022-11-10T10:54:37.417Z,12.57
2022-11-10T10:59:40.037Z,12.69
2022-11-10T11:04:42.207Z,12.68
2022-11-10T11:09:44.707Z,12.74
2022-11-10T11:14:46.603Z,13.19
2022-11-10T11:19:59.610Z,13.41
2022-11-10T11:25:28.122Z,13.26
2022-11-10T11:30:40.382Z,13.60
2022-11-10T11:35:49.786Z,13.67
2022-11-10T11:41:31.003Z,13.92
2022-11-10T11:46:54.438Z,13.62
2022-11-10T11:52:01.721Z,14.13
2022-11-10T11:57:53.769Z,14.01
2022-11-10T12:03:26.908Z,14.03
2022-11-10T12:08:31.058Z,13.95
2022-11-10T12:13:47.464Z,13.73
2022-11-10T12:19:33.353Z,13.84
2022-11-10T12:24:53.724Z,13.77
2022-11-10T12:30:17.459Z,13.60
2022-11-10T12:35:34.032Z,13.47
2022-11-10T12:40:58.611Z,13.35
2022-11-10T12:46:04.997Z,13.32
2022-11-10T12:51:12.501Z,13.31
2022-11-10T12:56:22.474Z,13.21
2022-11-10T13:01:23.941Z,13.30
2022-11-10T13:06:33.029Z,13.43
2022-11-10T13:11:38.741Z,13.47
2022-11-10T13:16:47.290Z,13.50
2022-11-10T13:21:54.448Z,13.36
2022-11-10T13:27:03.897Z,13.40
2022-11-10T13:32:07.974Z,13.36
2022-11-10T13:37:34.438Z,13.30
2022-11-10T13:42:36.218Z,13.28
2022-11-10T13:47:49.978Z,13.29
2022-11-10T13:53:06.958Z,13.35
2022-11-10T13:58:24.634Z,13.29
2022-11-10T14:03:45.446Z,13.31
2022-11-10T14:08:53.226Z,13.20
2022-11-10T14:14:00.906Z,13.10
2022-11-10T14:19:15.486Z,13.10
2022-11-10T14:24:25.024Z,13.08
2022-11-10T14:29:40.706Z,13.14
2022-11-10T14:34:46.823Z,13.08
2022-11-10T14:39:51.276Z,13.07
2022-11-10T14:45:11.420Z,12.96
2022-11-10T14:50:34.153Z,12.91
2022-11-10T14:55:36.564Z,12.82
2022-11-10T15:00:40.000Z,12.79
2022-11-10T15:05:42.518Z,12.69
2022-11-10T15:10:50.568Z,12.63
2022-11-10T15:15:53.584Z,12.63
2022-11-10T15:21:04.523Z,12.54
2022-11-10T15:26:17.060Z,12.45
2022-11-10T15:31:23.310Z,12.51
2022-11-10T15:36:33.397Z,12.42
2022-11-10T15:41:35.573Z,12.20
2022-11-10T15:46:36.960Z,12.15
2022-11-10T15:51:38.808Z,11.97
2022-11-10T15:56:40.285Z,12.05
2022-11-10T16:01:41.968Z,11.93
2022-11-10T16:06:43.492Z,11.92
2022-11-10T16:11:45.704Z,11.80
2022-11-10T16:16:47.118Z,11.63
2022-11-10T16:21:48.486Z,11.70
2022-11-10T16:26:50.066Z,11.72
2022-11-10T16:31:51.596Z,11.65
2022-11-10T16:36:53.462Z,11.63
2022-11-10T16:41:54.920Z,11.42
2022-11-10T16:46:57.276Z,11.19
2022-11-10T16:51:58.915Z,11.09
2022-11-10T16:57:00.331Z,11.01
2022-11-10T17:02:02.904Z,10.99
2022-11-10T17:07:13.631Z,10.96
2022-11-10T17:12:18.908Z,10.74
2022-11-10T17:17:20.870Z,10.77
2022-11-10T17:22:23.985Z,10.81
2022-11-10T17:27:26.847Z,10.47
2022-11-10T17:32:58.084Z,10.33
2022-11-10T17:37:52.932Z,10.31
2022-11-10T17:42:54.967Z,10.56
2022-11-10T17:47:57.395Z,10.44
2022-11-10T17:53:02.486Z,10.45
2022-11-10T17:58:04.074Z,10.23
2022-11-10T18:03:08.682Z,10.00
2022-11-10T18:08:12.110Z,9.79
2022-11-10T18:13:13.760Z,9.88
2022-11-10T18:18:23.313Z,10.13
2022-11-10T18:23:25.010Z,9.95
2022-11-10T18:28:26.922Z,10.08
2022-11-10T18:33:29.661Z,10.06
2022-11-10T18:38:31.153Z,10.09
2022-11-10T18:43:32.665Z,10.14
2022-11-10T18:48:37.310Z,9.99
2022-11-10T18:53:38.880Z,10.05
2022-11-10T18:58:41.321Z,9.92
2022-11-10T19:03:42.918Z,9.95
2022-11-10T19:08:45.367Z,9.93
2022-11-10T19:13:46.825Z,9.88
2022-11-10T19:18:48.569Z,9.97
2022-11-10T19:23:57.640Z,10.02
2022-11-10T19:28:59.431Z,10.08
2022-11-10T19:34:05.360Z,9.96
2022-11-10T19:39:10.234Z,9.88
2022-11-10T19:44:11.755Z,9.96
2022-11-10T19:49:16.266Z,10.01
2022-11-10T19:54:18.552Z,10.00
2022-11-10T19:59:23.023Z,9.90
2022-11-10T20:04:24.762Z,9.77
2022-11-10T20:09:32.842Z,9.94
2022-11-10T20:14:34.265Z,9.80
2022-11-10T20:19:40.760Z,9.80
2022-11-10T20:24:49.903Z,9.67
2022-11-10T20:29:52.680Z,9.87
2022-11-10T20:34:54.288Z,9.89
2022-11-10T20:39:55.896Z,9.88
2022-11-10T20:44:57.772Z,9.80
2022-11-10T20:49:59.209Z,9.77
2022-11-10T20:55:05.366Z,9.71
2022-11-10T21:00:07.604Z,9.73
2022-11-10T21:05:09.659Z,9.69
2022-11-10T21:10:11.261Z,9.60
2022-11-10T21:15:12.708Z,9.53
2022-11-10T21:20:14.581Z,9.51
2022-11-10T21:25:16.847Z,9.43
2022-11-10T21:30:22.899Z,9.51
2022-11-10T21:35:24.609Z,9.44
2022-11-10T21:40:26.034Z,9.47
2022-11-10T21:45:27.680Z,9.40
2022-11-10T21:50:29.722Z,9.21
2022-11-10T21:55:31.523Z,9.23
2022-11-10T22:00:33.077Z,9.27
2022-11-10T22:05:34.495Z,9.26
2022-11-10T22:10:55.518Z,9.22
2022-11-10T22:16:18.107Z,9.08
2022-11-10T22:21:19.653Z,9.06
2022-11-10T22:26:21.242Z,9.11
2022-11-10T22:31:22.742Z,9.03
2022-11-10T22:36:24.341Z,9.07
2022-11-10T22:41:44.528Z,8.94
2022-11-10T22:46:48.271Z,8.87
2022-11-10T22:51:52.761Z,8.88
2022-11-10T22:56:54.198Z,8.77
2022-11-10T23:01:56.349Z,8.72
2022-11-10T23:06:57.889Z,8.69
2022-11-10T23:12:00.219Z,8.69
2022-11-10T23:17:01.695Z,8.66
2022-11-10T23:22:03.130Z,8.57
2022-11-10T23:27:04.529Z,8.59
2022-11-10T23:32:08.499Z,8.60
2022-11-10T23:37:09.947Z,8.58
2022-11-10T23:42:12.387Z,8.46
2022-11-10T23:47:13.744Z,8.46
2022-11-10T23:52:15.278Z,8.37
2022-11-10T23:57:16.822Z,8.36
